Latest Weather Observations for Kingaroy

IDQ60801

Issued at 7:32 pm EST Sunday 29 March 2020 (issued every 10 minutes, with the page automatically refreshed every 10 minutes)

About weather observations | Map of weather stations | Latest weather observations for QLD | Other Formats
Station Details ID: 040922 Name: KINGAROY AIRPORT Lat: -26.57 Lon: 151.84 Height: 433.67 m
Data from the previous 72 hours. | See also: Recent months at Kingaroy
Date/Time
EST
Temp
°C
App
Temp
°C
Dew
Point
°C
Rel
Hum
%
Delta-T
°C
Wind Press
QNH
hPa
Press
MSL
hPa
Rain since
9am
mm
Dir  Spd
km/h
Gust
km/h
Spd
kts
Gust
kts
29/07:30pm 21.6 21.7 17.4 77 2.6 ENE 13 22 7 12 1019.0 1016.8 0.0
29/07:00pm 22.0 22.8 17.2 74 3.0 ENE 9 17 5 9 1018.5 1016.4 0.0
29/06:30pm 22.3 22.7 16.3 69 3.7 ENE 9 15 5 8 1018.3 1016.2 0.0
29/06:00pm 23.0 23.4 16.3 66 4.1 ESE 9 13 5 7 1017.9 1015.8 0.0
29/05:30pm 24.0 24.4 16.3 62 4.8 ENE 9 15 5 8 1017.5 1015.4 0.0
29/05:00pm 24.9 24.8 16.1 58 5.5 ENE 11 17 6 9 1017.2 1015.0 0.0
29/04:30pm 26.2 25.8 16.2 54 6.3 E 13 19 7 10 1017.1 1014.9 0.0
29/04:00pm 26.2 25.4 15.0 50 6.9 E 13 17 7 9 1017.0 1014.8 0.0
29/03:30pm 25.9 25.4 15.0 51 6.7 SE 11 17 6 9 1016.9 1014.7 0.0
29/03:00pm 27.8 27.9 15.5 47 7.6 ENE 9 13 5 7 1017.0 1014.8 0.0
29/02:30pm 26.5 25.8 14.3 47 7.4 SE 11 17 6 9 1017.0 1014.8 0.0
29/02:00pm 27.8 28.1 16.1 49 7.3 S 9 17 5 9 1017.4 1015.2 0.0
29/01:30pm 27.0 27.3 16.9 54 6.4 SSE 11 17 6 9 1017.9 1015.8 0.0
29/01:00pm 26.9 27.3 16.2 52 6.7 SSW 9 17 5 9 1018.3 1016.2 0.0
29/12:30pm 26.9 27.4 16.5 53 6.5 N 9 15 5 8 1018.6 1016.5 0.0
29/12:00pm 25.9 26.0 16.5 56 5.9 ESE 11 22 6 12 1019.4 1017.2 0.0
29/11:30am 25.1 26.0 16.5 59 5.4 ESE 7 15 4 8 1019.8 1017.7 0.0
29/11:00am 23.5 23.9 16.3 64 4.5 ESE 9 15 5 8 1020.2 1018.1 0.0
29/10:30am 23.3 23.1 16.8 67 4.1 ESE 13 20 7 11 1020.4 1018.3 0.0
29/10:00am 22.3 22.5 16.8 71 3.4 ESE 11 20 6 11 1020.5 1018.4 0.0
29/09:47am 21.8 21.6 16.7 73 3.2 ESE 13 20 7 11 1020.6 1018.5 0.0
29/09:30am 21.9 21.9 17.1 74 3.0 ESE 13 22 7 12 1020.8 1018.7 0.0
29/09:00am 20.4 19.8 17.6 84 1.7 E 17 24 9 13 1020.8 1018.7 0.0
29/08:30am 19.3 20.1 18.1 93 0.8 ESE 11 17 6 9 1020.7 1018.6 0.0
29/08:00am 18.4 18.7 17.9 97 0.3 ESE 13 20 7 11 1020.6 1018.5 0.0
29/07:30am 18.0 18.6 17.8 99 0.1 SE 11 17 6 9 1020.2 1018.1 0.0
29/07:00am 17.7 18.2 17.5 99 0.1 ESE 11 19 6 10 1019.8 1017.7 0.0
29/06:30am 17.7 19.0 17.5 99 0.1 SE 7 13 4 7 1019.3 1017.1 0.0
29/06:00am 17.4 18.5 17.2 99 0.1 SE 7 11 4 6 1019.0 1016.8 0.0
29/05:30am 17.2 17.9 17.0 99 0.1 SE 9 11 5 6 1018.6 1016.5 0.0
29/05:00am 17.2 17.1 17.0 99 0.1 ESE 13 19 7 10 1018.1 1016.0 0.0
29/04:44am 16.9 17.1 16.7 99 0.1 ESE 11 20 6 11 1018.1 1016.0 0.0
29/04:30am 16.4 17.7 16.2 99 0.1 SE 4 7 2 4 1018.2 1016.1 0.0
29/04:00am 16.2 18.2 16.0 99 0.1 CALM 0 0 0 0 1018.4 1016.3 0.0
29/03:30am 16.3 17.2 16.1 99 0.1 ESE 6 11 3 6 1018.4 1016.3 0.0
29/03:00am 16.0 16.7 15.5 97 0.3 SE 6 7 3 4 1018.6 1016.5 0.0
29/02:30am 16.7 17.2 16.5 99 0.1 ESE 9 15 5 8 1018.8 1016.6 0.0
29/02:00am 16.8 17.7 16.6 99 0.1 ESE 7 11 4 6 1019.1 1016.9 0.0
29/01:44am 16.9 18.0 16.7 99 0.1 ESE 6 9 3 5 1019.3 1017.1 0.0
29/01:30am 17.3 17.6 17.1 99 0.1 E 11 15 6 8 1019.3 1017.1 0.0
29/01:05am 16.3 17.0 16.1 99 0.1 ESE 7 9 4 5 1019.6 1017.5 0.0
29/01:00am 16.1 16.9 15.9 99 0.1 ESE 6 9 3 5 1019.7 1017.6 0.0
29/12:30am 15.9 16.6 15.6 98 0.2 SSE 6 7 3 4 1019.8 1017.7 0.0
29/12:06am 15.8 17.2 15.3 97 0.3 SSE 2 6 1 3 1019.9 1017.8 0.0
29/12:00am 16.2 17.0 15.9 98 0.2 SE 6 13 3 7 1019.9 1017.8 0.0
 
Date/Time
EST
Temp
°C
App
Temp
°C
Dew
Point
°C
Rel
Hum
%
Delta-T
°C
Wind Press
QNH
hPa
Press
MSL
hPa
Rain since
9am
mm
Dir  Spd
km/h
Gust
km/h
Spd
kts
Gust
kts
28/11:34pm 16.3 16.2 16.1 99 0.1 SSE 11 13 6 7 1020.2 1018.1 0.0
28/11:30pm 16.1 16.4 15.9 99 0.1 SSE 9 11 5 6 1020.2 1018.1 0.0
28/11:00pm 15.9 16.2 14.6 92 0.8 SE 6 7 3 4 1020.4 1018.3 0.0
28/10:30pm 16.6 18.0 15.3 92 0.8 ENE 2 7 1 4 1020.4 1018.3 0.0
28/10:00pm 17.0 17.7 15.5 91 0.9 E 6 9 3 5 1020.4 1018.3 0.0
28/09:30pm 17.7 18.3 15.7 88 1.2 E 7 9 4 5 1020.3 1018.2 0.0
28/09:00pm 18.3 18.8 16.5 89 1.1 E 9 13 5 7 1020.2 1018.1 0.0
28/08:30pm 18.5 18.9 16.3 87 1.3 E 9 15 5 8 1020.0 1017.9 0.0
28/08:00pm 18.9 19.7 16.3 85 1.6 ESE 7 11 4 6 1020.2 1018.1 0.0
28/07:30pm 19.4 19.8 16.2 82 2.0 E 9 13 5 7 1019.8 1017.7 0.0
28/07:00pm 20.1 19.7 16.3 79 2.3 E 13 19 7 10 1019.3 1017.1 0.0
28/06:30pm 20.3 20.5 16.7 80 2.2 E 11 17 6 9 1019.3 1017.1 0.0
28/06:00pm 20.1 21.0 16.7 81 2.1 ENE 7 13 4 7 1019.4 1017.2 0.0
28/05:30pm 20.6 21.5 16.6 78 2.5 ENE 7 13 4 7 1019.1 1016.9 0.0
28/05:00pm 20.8 20.5 16.4 76 2.7 ENE 13 20 7 11 1018.8 1016.6 0.0
28/04:30pm 25.2 23.1 14.6 51 6.4 E 19 43 10 23 1017.9 1015.8 0.0
28/04:00pm 25.2 24.5 15.5 55 6.0 E 13 20 7 11 1017.9 1015.8 0.0
28/03:30pm 26.3 24.7 16.0 53 6.4 ESE 19 30 10 16 1017.9 1015.8 0.0
28/03:00pm 24.7 23.9 15.1 55 5.9 SE 13 22 7 12 1018.1 1016.0 0.0
28/02:30pm 26.7 27.1 16.3 53 6.5 ESE 9 19 5 10 1018.3 1016.2 0.0
28/02:00pm 26.3 25.6 15.4 51 6.7 E 13 22 7 12 1018.5 1016.4 0.0
28/01:30pm 26.4 25.7 16.3 53 6.3 ESE 15 24 8 13 1019.0 1016.8 0.0
28/01:00pm 25.5 24.3 16.1 56 5.8 E 17 24 9 13 1019.4 1017.2 0.0
28/12:30pm 25.5 23.7 16.1 56 5.9 E 20 28 11 15 1019.9 1017.8 0.0
28/12:00pm 24.0 22.7 15.8 60 5.0 ESE 17 26 9 14 1020.4 1018.3 0.0
28/11:30am 23.2 22.5 16.3 65 4.3 ESE 15 24 8 13 1021.0 1018.9 0.0
28/11:00am 23.1 21.6 16.4 66 4.1 ESE 19 26 10 14 1021.4 1019.2 0.0
28/10:30am 21.9 20.2 15.7 68 3.8 ESE 19 28 10 15 1021.8 1019.7 0.0
28/10:00am 21.7 20.5 16.2 71 3.4 SE 17 26 9 14 1021.6 1019.5 0.0
28/09:42am 20.9 19.2 15.7 72 3.2 ESE 19 32 10 17 1021.7 1019.6 0.0
28/09:30am 20.8 19.0 15.4 71 3.3 ESE 19 28 10 15 1021.6 1019.5 0.0
28/09:00am 20.3 18.8 15.3 73 3.0 SE 17 30 9 16 1021.7 1019.6 0.0
28/08:30am 19.6 18.6 15.5 77 2.5 SE 15 26 8 14 1021.6 1019.5 0.0
28/08:00am 18.6 17.4 15.1 80 2.1 SE 15 22 8 12 1021.3 1019.1 0.0
28/07:30am 17.8 16.9 14.9 83 1.7 SE 13 20 7 11 1020.9 1018.8 0.0
28/07:00am 17.2 16.7 14.8 86 1.4 SE 11 17 6 9 1020.8 1018.7 0.0
28/06:30am 16.7 16.4 14.5 87 1.3 SE 9 15 5 8 1020.6 1018.5 0.0
28/06:00am 16.2 15.4 13.9 86 1.3 SE 11 15 6 8 1020.4 1018.3 0.0
28/05:30am 16.1 16.0 13.9 87 1.3 SE 7 9 4 5 1020.4 1018.3 0.0
28/05:00am 15.6 15.4 13.6 88 1.1 SE 7 11 4 6 1020.2 1018.1 0.0
28/04:51am 15.5 15.3 13.5 88 1.1 SSE 7 9 4 5 1020.2 1018.1 0.0
28/04:30am 16.0 15.5 13.7 86 1.3 SSE 9 11 5 6 1020.0 1017.9 0.0
28/04:00am 16.1 16.0 13.9 87 1.3 SE 7 13 4 7 1020.0 1017.9 0.0
28/03:30am 15.7 16.7 14.2 91 0.9 SE 2 6 1 3 1019.9 1017.8 0.0
28/03:00am 15.5 15.4 14.0 91 0.9 SE 7 11 4 6 1020.0 1017.9 0.0
28/02:30am 16.1 15.8 14.3 89 1.0 ESE 9 15 5 8 1020.3 1018.2 0.0
28/02:00am 16.3 15.7 14.5 89 1.0 SE 11 17 6 9 1020.4 1018.3 0.0
28/01:30am 16.3 16.4 14.5 89 1.1 SE 7 11 4 6 1020.7 1018.6 0.0
28/01:00am 16.6 18.2 15.0 90 0.9 CALM 0 0 0 0 1021.0 1018.9 0.0
28/12:30am 16.4 16.3 14.9 91 0.9 SSW 9 11 5 6 1021.1 1019.0 0.0
28/12:00am 15.9 16.0 13.9 88 1.1 ESE 6 7 3 4 1021.3 1019.1 0.0
 
Date/Time
EST
Temp
°C
App
Temp
°C
Dew
Point
°C
Rel
Hum
%
Delta-T
°C
Wind Press
QNH
hPa
Press
MSL
hPa
Rain since
9am
mm
Dir  Spd
km/h
Gust
km/h
Spd
kts
Gust
kts
27/11:30pm 16.4 16.5 13.9 85 1.4 SE 6 7 3 4 1021.5 1019.3 0.0
27/11:00pm 17.6 17.7 14.5 82 1.8 SE 7 11 4 6 1021.7 1019.6 0.0
27/10:30pm 17.8 18.0 14.7 82 1.8 ESE 7 11 4 6 1022.0 1019.9 0.0
27/10:00pm 17.9 17.4 15.0 83 1.7 ESE 11 15 6 8 1022.1 1020.0 0.0
27/09:30pm 18.0 17.2 15.1 83 1.7 ESE 13 17 7 9 1022.3 1020.2 0.0
27/09:00pm 18.2 17.8 15.1 82 1.8 ESE 11 19 6 10 1022.2 1020.1 0.0
27/08:30pm 18.6 17.6 15.7 83 1.7 ESE 15 24 8 13 1022.1 1020.0 0.0
27/08:14pm 18.6 16.9 15.7 83 1.7 ESE 19 33 10 18 1021.9 1019.8 0.0
27/08:00pm 18.7 17.9 16.1 85 1.6 ESE 15 28 8 15 1021.9 1019.8 0.0
27/07:30pm 18.6 18.0 16.6 88 1.2 SE 15 26 8 14 1021.7 1019.6 0.0
27/07:02pm 18.9 17.7 16.1 84 1.7 ESE 17 26 9 14 1021.4 1019.2 0.0
27/07:00pm 18.9 17.7 16.0 83 1.8 ESE 17 26 9 14 1021.3 1019.1 0.0
27/06:30pm 19.1 17.1 15.6 80 2.1 ESE 20 33 11 18 1020.6 1018.5 0.0
27/06:00pm 19.9 18.7 16.0 78 2.4 ESE 17 35 9 19 1020.4 1018.3 0.0
27/05:30pm 20.7 18.9 15.9 74 2.9 ESE 20 30 11 16 1020.2 1018.1 0.0
27/05:00pm 21.8 19.9 15.2 66 4.0 ESE 19 30 10 16 1020.0 1017.9 0.0
27/04:30pm 22.9 21.4 15.2 62 4.7 ESE 17 24 9 13 1019.9 1017.8 0.0
27/04:00pm 23.1 21.2 15.2 61 4.8 ESE 19 28 10 15 1019.8 1017.7 0.0
27/03:30pm 23.4 21.9 15.2 60 5.0 ESE 17 26 9 14 1019.8 1017.7 0.0
27/03:00pm 23.4 22.1 15.7 62 4.7 ESE 17 26 9 14 1020.1 1018.0 0.0
27/02:30pm 23.6 22.2 15.6 61 4.9 SE 17 24 9 13 1020.2 1018.1 0.0
27/02:00pm 23.6 23.0 15.6 61 4.9 SE 13 19 7 10 1020.4 1018.3 0.0
27/01:30pm 23.5 21.6 15.3 60 5.0 ESE 19 30 10 16 1020.7 1018.6 0.0
27/01:00pm 24.1 22.6 15.3 58 5.4 ESE 17 28 9 15 1020.8 1018.7 0.0
27/12:30pm 24.1 22.0 15.1 57 5.5 ESE 20 30 11 16 1021.1 1019.0 0.0
27/12:00pm 24.1 22.2 15.3 58 5.4 ESE 19 30 10 16 1021.5 1019.3 0.0
27/11:30am 23.4 22.3 16.4 64 4.3 ESE 17 24 9 13 1022.0 1019.9 0.0
27/11:00am 22.5 20.9 15.1 63 4.5 SE 17 28 9 15 1022.1 1020.0 0.0
27/10:30am 24.4 22.8 15.9 59 5.3 ESE 19 32 10 17 1022.3 1020.2 0.0
27/10:00am 23.3 21.5 15.9 63 4.5 ESE 20 33 11 18 1022.5 1020.4 0.0
27/09:30am 20.8 19.3 15.4 71 3.3 SE 17 26 9 14 1022.4 1020.3 0.0
27/09:13am 20.3 19.1 16.1 77 2.6 SE 17 24 9 13 1022.5 1020.4 0.0
27/09:00am 20.0 18.7 15.8 77 2.5 SE 17 22 9 12 1022.6 1020.5 0.0
27/08:30am 19.2 18.3 15.9 81 2.0 SE 15 24 8 13 1022.4 1020.3 0.0
27/08:00am 20.1 19.7 17.1 83 1.9 SE 15 28 8 15 1022.0 1019.9 0.0
27/07:30am 18.6 18.1 16.9 90 1.0 SE 15 28 8 15 1021.7 1019.6 0.0
27/07:00am 18.0 18.0 17.2 95 0.5 SE 13 20 7 11 1021.6 1019.5 0.0
27/06:30am 17.6 17.5 17.0 96 0.4 SE 13 20 7 11 1021.4 1019.2 0.0
27/06:00am 17.6 17.1 16.8 95 0.5 SE 15 20 8 11 1021.0 1018.9 0.0
27/05:30am 17.6 17.6 17.3 98 0.2 ESE 13 20 7 11 1021.0 1018.9 0.0
27/05:00am 17.4 17.8 17.2 99 0.1 SE 11 17 6 9 1020.7 1018.6 0.0
27/04:42am 17.6 17.7 17.4 99 0.1 SE 13 20 7 11 1020.3 1018.2 0.0
27/04:30am 17.3 17.3 17.1 99 0.1 SSE 13 19 7 10 1020.1 1018.0 0.0
27/04:00am 17.2 17.4 16.7 97 0.3 SE 11 15 6 8 1020.2 1018.1 0.0
27/03:30am 17.7 17.8 17.5 99 0.1 ESE 13 22 7 12 1020.0 1017.9 0.0
27/03:00am 16.4 16.8 16.2 99 0.1 SSE 9 15 5 8 1020.2 1018.1 0.0
27/02:33am 15.7 15.8 15.4 98 0.2 SSE 9 11 5 6 1020.5 1018.4 0.0
27/02:30am 16.0 16.6 15.8 99 0.1 SSE 7 9 4 5 1020.5 1018.4 0.0
27/02:00am 15.9 17.7 15.6 98 0.2 CALM 0 0 0 0 1020.7 1018.6 0.0
27/01:54am 15.8 17.5 15.3 97 0.3 CALM 0 0 0 0 1020.7 1018.6 0.0
27/01:30am 15.9 17.5 14.9 94 0.6 CALM 0 0 0 0 1020.9 1018.8 0.0
27/01:00am 16.4 17.0 15.4 94 0.6 ESE 6 9 3 5 1020.7 1018.6 0.0
27/12:30am 16.8 17.4 15.7 93 0.7 SE 7 11 4 6 1020.8 1018.7 0.0
27/12:00am 17.2 17.5 15.9 92 0.8 ESE 9 13 5 7 1020.9 1018.8 0.0
 
Date/Time
EST
Temp
°C
App
Temp
°C
Dew
Point
°C
Rel
Hum
%
Delta-T
°C
Wind Press
QNH
hPa
Press
MSL
hPa
Rain since
9am
mm
Dir  Spd
km/h
Gust
km/h
Spd
kts
Gust
kts
26/11:30pm 17.3 17.1 15.8 91 0.9 ESE 11 17 6 9 1021.1 1019.0 0.0
26/11:00pm 17.9 17.8 15.9 88 1.2 ESE 11 17 6 9 1021.6 1019.5 0.0
26/10:30pm 18.5 19.1 15.9 85 1.6 ESE 7 13 4 7 1021.6 1019.5 0.0
26/10:00pm 19.2 18.4 16.2 83 1.8 ESE 15 26 8 14 1021.7 1019.6 0.0
26/09:30pm 18.4 19.0 15.8 85 1.6 SE 7 13 4 7 1021.9 1019.8 0.0
26/09:00pm 19.0 19.7 15.7 81 2.0 E 6 11 3 6 1021.6 1019.5 0.0
26/08:30pm 19.6 19.4 15.7 78 2.4 E 11 17 6 9 1021.4 1019.2 0.0
26/08:00pm 20.0 20.5 15.6 76 2.7 E 7 11 4 6 1020.9 1018.8 0.0

Other formats

Comma delimited format used in spreadsheet applications
http://www.bom.gov.au/fwo/IDQ60801/IDQ60801.94549.axf

JavaScript Object Notation format (JSON) in row-major order
http://www.bom.gov.au/fwo/IDQ60801/IDQ60801.94549.json

Data quality

Most of these data are generated automatically and are frequently updated. Quality checks on data are not normally performed. It is possible for incorrect values to appear. Refer to information at About Latest Weather Observations and please check the disclaimer before using these data.